Eagletown, Oklahoma
Current Conditions -  °F | °C
As of 12:53 AM on Monday 22 Dec 2014 (Local Time) from KDEQ Reporting Station
Overcast Overcast  
Wind Chill: 47°   Ceiling: 4400
Heat Index: 49°   Visibility: 8mi
Dew Point: 46°   Wind: 6mph
Humidity: 90%   Direction: 120°ESE
Pressure: 29.76"   Gusts: NA
Location:  34.03°N, 94.58°W
Report Text: KDEQ 220653Z AUTO 12005KT 8SM OVC044 09/08 A2976 RMK AO2 SLP076 T00940078 $
Loading
Personal Weather Stations






























Interactive Weather Map New forecast layout! Learn more

10-Day Weather Forecast

Advertisements
Track Severe Weather on mobile